createdAt,value
2023-09-10T00:03:52.238Z,101137.72
2023-09-10T00:09:14.010Z,101133.16
2023-09-10T00:14:35.795Z,101134.09
2023-09-10T00:19:57.648Z,101139.88
2023-09-10T00:25:19.427Z,101146.03
2023-09-10T00:30:41.210Z,101146.78
2023-09-10T00:36:03.093Z,101149.75
2023-09-10T00:41:24.882Z,101150.34
2023-09-10T00:46:46.706Z,101139.19
2023-09-10T00:52:08.738Z,101141.16
2023-09-10T00:57:30.564Z,101144.31
2023-09-10T01:02:53.056Z,101144.63
2023-09-10T01:08:15.306Z,101144.22
2023-09-10T01:13:58.592Z,101144.78
2023-09-10T01:19:38.327Z,101135.16
2023-09-10T01:25:00.495Z,101135.16
2023-09-10T01:30:22.283Z,101132.66
2023-09-10T01:35:58.526Z,101134.84
2023-09-10T01:41:20.756Z,101137.59
2023-09-10T01:46:43.806Z,101132.97
2023-09-10T01:52:05.781Z,101129.44
2023-09-10T01:57:28.630Z,101132.44
2023-09-10T02:02:50.559Z,101125.19
2023-09-10T02:08:12.639Z,101124.03
2023-09-10T02:13:34.500Z,101126.03
2023-09-10T02:18:56.246Z,101120.44
2023-09-10T02:24:17.964Z,101124.31
2023-09-10T02:29:39.721Z,101126.16
2023-09-10T02:35:01.585Z,101125.22
2023-09-10T02:40:23.349Z,101135.34
2023-09-10T02:45:45.092Z,101128.13
2023-09-10T02:51:06.844Z,101126.28
2023-09-10T02:56:28.659Z,101134.22
2023-09-10T03:01:50.608Z,101133.19
2023-09-10T03:07:12.484Z,101133.47
2023-09-10T03:12:34.214Z,101141.13
2023-09-10T03:17:56.115Z,101134.28
2023-09-10T03:23:17.853Z,101135.81
2023-09-10T03:28:39.806Z,101127.44
2023-09-10T03:34:01.800Z,101126.59
2023-09-10T03:39:23.659Z,101119.13
2023-09-10T03:44:45.427Z,101125.97
2023-09-10T03:50:07.487Z,101125.53
2023-09-10T03:55:29.232Z,101118.41
2023-09-10T04:00:51.066Z,101116.75
2023-09-10T04:06:12.827Z,101117.59
2023-09-10T04:11:34.640Z,101111.22
2023-09-10T04:16:56.516Z,101115.03
2023-09-10T04:22:18.352Z,101115.88
2023-09-10T04:27:40.108Z,101117.44
2023-09-10T04:33:01.896Z,101117.78
2023-09-10T04:38:24.188Z,101116.66
2023-09-10T04:43:45.983Z,101110.16
2023-09-10T04:49:07.800Z,101114.81
2023-09-10T04:54:29.616Z,101114.56
2023-09-10T04:59:51.385Z,101113.72
2023-09-10T05:05:13.257Z,101115.06
2023-09-10T05:10:35.539Z,101109.34
2023-09-10T05:15:57.301Z,101119.75
2023-09-10T05:21:19.098Z,101113.22
2023-09-10T05:26:40.857Z,101128.50
2023-09-10T05:32:02.824Z,101117.31
2023-09-10T05:37:24.608Z,101125.06
2023-09-10T05:42:46.368Z,101123.31
2023-09-10T05:48:08.265Z,101115.34
2023-09-10T05:53:30.097Z,101131.56
2023-09-10T05:58:51.971Z,101139.34
2023-09-10T06:04:13.784Z,101134.75
2023-09-10T06:09:35.605Z,101134.00
2023-09-10T06:14:57.311Z,101134.81
2023-09-10T06:20:19.201Z,101134.94
2023-09-10T06:25:41.491Z,101132.69
2023-09-10T06:31:03.251Z,101135.09
2023-09-10T06:36:25.327Z,101123.28
2023-09-10T06:41:47.409Z,101131.16
2023-09-10T06:47:10.413Z,101130.31
2023-09-10T06:52:32.220Z,101123.34
2023-09-10T06:57:54.172Z,101125.81
2023-09-10T07:03:16.253Z,101141.13
2023-09-10T07:08:38.748Z,101137.00
2023-09-10T07:14:00.851Z,101139.34
2023-09-10T07:19:22.586Z,101142.50
2023-09-10T07:24:44.335Z,101136.50
2023-09-10T07:30:06.742Z,101141.34
2023-09-10T07:35:29.016Z,101140.09
2023-09-10T07:40:50.833Z,101136.56
2023-09-10T07:46:12.723Z,101139.72
2023-09-10T07:51:34.521Z,101136.41
2023-09-10T07:56:56.265Z,101131.97
2023-09-10T08:02:18.078Z,101129.47
2023-09-10T08:07:39.876Z,101125.97
2023-09-10T08:13:04.299Z,101128.72
2023-09-10T08:18:26.173Z,101131.53
2023-09-10T08:23:47.971Z,101133.59
2023-09-10T08:29:09.761Z,101131.69
2023-09-10T08:34:31.537Z,101127.44
2023-09-10T08:39:54.691Z,101116.72
2023-09-10T08:45:16.434Z,101117.19
2023-09-10T08:50:38.543Z,101118.84
2023-09-10T08:56:00.608Z,101110.72
2023-09-10T09:01:22.968Z,101102.78
2023-09-10T09:06:53.050Z,101101.91
2023-09-10T09:12:15.814Z,101092.53
2023-09-10T09:17:38.867Z,101101.63
2023-09-10T09:23:24.169Z,101101.84
2023-09-10T09:28:46.514Z,101091.06
2023-09-10T09:34:08.315Z,101086.00
2023-09-10T09:39:31.087Z,101081.97
2023-09-10T09:44:52.885Z,101071.13
2023-09-10T09:50:15.228Z,101077.72
2023-09-10T09:55:36.998Z,101066.19
2023-09-10T10:00:59.496Z,101056.63
2023-09-10T10:06:21.312Z,101067.06
2023-09-10T10:11:43.845Z,101039.25
2023-09-10T10:17:06.432Z,101047.69
2023-09-10T10:22:28.452Z,101046.44
2023-09-10T10:27:52.175Z,101048.63
2023-09-10T10:33:16.693Z,101036.72
2023-09-10T10:38:44.426Z,101037.53
2023-09-10T10:44:34.698Z,101026.56
2023-09-10T10:49:57.689Z,101020.38
2023-09-10T10:55:20.287Z,101022.63
2023-09-10T11:00:42.049Z,101022.63
2023-09-10T11:06:05.981Z,101020.56
2023-09-10T11:11:36.846Z,101013.72
2023-09-10T11:17:22.481Z,101006.84
2023-09-10T11:23:06.563Z,100990.34
2023-09-10T11:28:48.243Z,100993.88
2023-09-10T11:34:18.930Z,100981.03
2023-09-10T11:39:40.869Z,100973.19
2023-09-10T11:45:02.654Z,100974.81
2023-09-10T11:50:24.789Z,100978.16
2023-09-10T11:55:48.171Z,100963.56
2023-09-10T12:01:11.176Z,100968.00
2023-09-10T12:06:32.957Z,100961.34
2023-09-10T12:11:55.559Z,100952.44
2023-09-10T12:17:17.689Z,100945.88
2023-09-10T12:22:39.440Z,100946.66
2023-09-10T12:28:01.288Z,100942.00
2023-09-10T12:33:23.143Z,100948.25
2023-09-10T12:38:44.975Z,100939.53
2023-09-10T12:44:06.953Z,100933.19
2023-09-10T12:49:28.786Z,100928.03
2023-09-10T12:54:50.672Z,100928.06
2023-09-10T13:00:12.997Z,100933.56
2023-09-10T13:05:34.886Z,100936.41
2023-09-10T13:10:56.705Z,100928.50
2023-09-10T13:16:18.571Z,100925.19
2023-09-10T13:21:40.387Z,100925.31
2023-09-10T13:27:02.222Z,100908.03
2023-09-10T13:32:24.108Z,100907.00
2023-09-10T13:37:46.141Z,100913.44
2023-09-10T13:43:08.078Z,100918.63
2023-09-10T13:48:30.044Z,100904.06
2023-09-10T13:53:51.863Z,100895.53
2023-09-10T13:59:13.710Z,100891.00
2023-09-10T14:04:35.525Z,100889.34
2023-09-10T14:09:58.418Z,100890.03
2023-09-10T14:15:21.432Z,100890.28
2023-09-10T14:20:43.245Z,100886.78
2023-09-10T14:26:05.092Z,100884.63
2023-09-10T14:31:27.004Z,100885.50
2023-09-10T14:36:48.746Z,100875.41
2023-09-10T14:42:10.527Z,100864.59
2023-09-10T14:47:32.497Z,100871.94
2023-09-10T14:52:54.377Z,100861.44
2023-09-10T14:58:16.164Z,100862.56
2023-09-10T15:03:38.233Z,100859.50
2023-09-10T15:09:00.229Z,100858.91
2023-09-10T15:14:22.046Z,100851.75
2023-09-10T15:19:43.928Z,100844.72
2023-09-10T15:25:05.968Z,100845.94
2023-09-10T15:30:27.849Z,100841.56
2023-09-10T15:35:49.588Z,100833.72
2023-09-10T15:41:11.662Z,100842.16
2023-09-10T15:46:33.478Z,100839.81
2023-09-10T15:51:55.437Z,100832.38
2023-09-10T15:57:17.286Z,100827.31
2023-09-10T16:02:39.311Z,100835.28
2023-09-10T16:08:01.516Z,100829.25
2023-09-10T16:13:23.392Z,100833.03
2023-09-10T16:18:45.136Z,100829.72
2023-09-10T16:24:07.061Z,100827.13
2023-09-10T16:29:28.888Z,100821.28
2023-09-10T16:34:50.692Z,100820.81
2023-09-10T16:40:12.610Z,100818.97
2023-09-10T16:45:34.433Z,100824.47
2023-09-10T16:50:56.201Z,100820.44
2023-09-10T16:56:18.099Z,100826.44
2023-09-10T17:01:39.928Z,100825.56
2023-09-10T17:07:01.766Z,100829.31
2023-09-10T17:12:23.578Z,100832.25
2023-09-10T17:17:45.443Z,100832.66
2023-09-10T17:23:07.287Z,100830.47
2023-09-10T17:28:30.415Z,100829.47
2023-09-10T17:33:52.213Z,100834.31
2023-09-10T17:39:14.004Z,100837.47
2023-09-10T17:44:37.577Z,100836.72
2023-09-10T17:50:07.235Z,100838.88
2023-09-10T17:55:29.843Z,100842.41
2023-09-10T18:00:51.690Z,100843.44
2023-09-10T18:06:13.594Z,100843.97
2023-09-10T18:11:35.376Z,100844.75
2023-09-10T18:16:57.163Z,100835.91
2023-09-10T18:22:19.031Z,100836.06
2023-09-10T18:27:41.130Z,100837.94
2023-09-10T18:33:03.067Z,100830.88
2023-09-10T18:38:24.922Z,100830.69
2023-09-10T18:43:46.871Z,100839.81
2023-09-10T18:49:08.667Z,100836.47
2023-09-10T18:54:30.652Z,100836.63
2023-09-10T18:59:52.439Z,100844.78
2023-09-10T19:05:14.276Z,100846.09
2023-09-10T19:10:36.473Z,100836.75
2023-09-10T19:16:01.622Z,100837.34
2023-09-10T19:21:23.729Z,100833.50
2023-09-10T19:26:45.595Z,100848.59
2023-09-10T19:32:07.438Z,100842.84
2023-09-10T19:37:30.140Z,100834.59
2023-09-10T19:42:52.058Z,100835.44
2023-09-10T19:48:15.285Z,100844.47
2023-09-10T19:53:37.256Z,100833.06
2023-09-10T19:59:09.079Z,100830.03
2023-09-10T20:04:30.893Z,100829.56
2023-09-10T20:09:52.847Z,100830.94
2023-09-10T20:15:14.646Z,100837.66
2023-09-10T20:20:36.473Z,100838.00
2023-09-10T20:25:58.268Z,100840.25
2023-09-10T20:31:20.148Z,100837.66
2023-09-10T20:36:41.979Z,100826.59
2023-09-10T20:42:03.937Z,100821.97
2023-09-10T20:47:25.800Z,100820.97
2023-09-10T20:52:47.602Z,100816.28
2023-09-10T20:58:09.393Z,100829.53
2023-09-10T21:03:31.345Z,100820.41
2023-09-10T21:08:53.299Z,100819.06
2023-09-10T21:14:15.128Z,100818.63
2023-09-10T21:19:37.501Z,100813.91
2023-09-10T21:24:59.236Z,100818.81
2023-09-10T21:30:20.998Z,100819.47
2023-09-10T21:35:46.658Z,100826.19
2023-09-10T21:41:08.430Z,100816.63
2023-09-10T21:46:30.266Z,100811.38
2023-09-10T21:51:52.080Z,100801.28
2023-09-10T21:57:13.900Z,100800.03
2023-09-10T22:02:35.900Z,100802.22
2023-09-10T22:07:57.782Z,100808.94
2023-09-10T22:13:19.902Z,100803.25
2023-09-10T22:18:41.932Z,100803.47
2023-09-10T22:24:04.128Z,100803.66
2023-09-10T22:29:25.906Z,100794.22
2023-09-10T22:34:47.669Z,100798.84
2023-09-10T22:40:09.708Z,100796.03
2023-09-10T22:45:31.559Z,100806.31
2023-09-10T22:50:53.526Z,100818.94
2023-09-10T22:56:15.358Z,100811.41
2023-09-10T23:01:37.567Z,100810.59
2023-09-10T23:06:59.486Z,100803.97
2023-09-10T23:12:21.362Z,100799.75
2023-09-10T23:17:44.652Z,100790.72
2023-09-10T23:23:08.295Z,100784.34
2023-09-10T23:28:30.163Z,100785.00
2023-09-10T23:33:51.953Z,100787.13
2023-09-10T23:39:13.696Z,100787.13
2023-09-10T23:44:35.525Z,100791.91
2023-09-10T23:49:57.233Z,100785.94
2023-09-10T23:55:18.975Z,100789.31
